Sulphur Rock, Arkansas
Current Conditions -  °F | °C
As of 3:15 AM on Sunday 21 Dec 2014 (Local Time) from KBVX Reporting Station
Overcast Overcast  
Wind Chill: 35°   Ceiling: 4100
Heat Index: 39°   Visibility: 8mi
Dew Point: 36°   Wind: 6mph
Humidity: 87%   Direction: 110°ESE
Pressure: 30.21"   Gusts: NA
Location:  35.75°N, 91.5°W
Report Text: KBVX 210915Z AUTO 11005KT 8SM OVC041 04/02 A3021 RMK AO1
Loading
Personal Weather Stations






























Interactive Weather Map New forecast layout! Learn more

10-Day Weather Forecast

Advertisements
Track Severe Weather on mobile